createdAt,value
2023-03-22T00:01:17.802Z,100441.09
2023-03-22T00:03:45.710Z,100433.38
2023-03-22T00:06:13.590Z,100437.75
2023-03-22T00:08:41.387Z,100434.84
2023-03-22T00:11:09.758Z,100441.91
2023-03-22T00:13:39.108Z,100438.38
2023-03-22T00:16:09.935Z,100434.41
2023-03-22T00:18:37.870Z,100436.09
2023-03-22T00:21:05.957Z,100429.81
2023-03-22T00:23:33.908Z,100433.38
2023-03-22T00:26:01.515Z,100428.97
2023-03-22T00:28:29.097Z,100424.16
2023-03-22T00:31:00.857Z,100420.22
2023-03-22T00:33:30.363Z,100422.69
2023-03-22T00:35:59.956Z,100423.13
2023-03-22T00:38:42.137Z,100413.78
2023-03-22T00:41:13.332Z,100419.84
2023-03-22T00:43:41.810Z,100414.59
2023-03-22T00:46:12.365Z,100410.03
2023-03-22T00:48:40.475Z,100402.75
2023-03-22T00:51:09.418Z,100404.19
2023-03-22T00:53:37.217Z,100402.94
2023-03-22T00:56:05.780Z,100404.81
2023-03-22T00:58:33.802Z,100394.38
2023-03-22T01:01:01.642Z,100399.19
2023-03-22T01:03:30.738Z,100387.50
2023-03-22T01:05:58.666Z,100390.41
2023-03-22T01:08:33.565Z,100392.91
2023-03-22T01:11:01.875Z,100380.19
2023-03-22T01:13:29.770Z,100381.66
2023-03-22T01:15:57.546Z,100381.84
2023-03-22T01:18:25.177Z,100376.63
2023-03-22T01:20:54.213Z,100376.63
2023-03-22T01:23:21.795Z,100376.19
2023-03-22T01:25:49.461Z,100371.84
2023-03-22T01:28:17.123Z,100368.13
2023-03-22T01:30:44.743Z,100368.72
2023-03-22T01:33:12.408Z,100369.16
2023-03-22T01:35:40.582Z,100374.13
2023-03-22T01:38:09.751Z,100365.59
2023-03-22T01:40:37.815Z,100362.28
2023-03-22T01:43:11.537Z,100356.88
2023-03-22T01:45:45.834Z,100361.25
2023-03-22T01:48:19.332Z,100355.00
2023-03-22T01:50:56.076Z,100346.25
2023-03-22T01:53:27.270Z,100346.25
2023-03-22T01:55:56.408Z,100344.78
2023-03-22T01:58:24.774Z,100343.72
2023-03-22T02:00:53.677Z,100337.06
2023-03-22T02:03:31.093Z,100336.25
2023-03-22T02:05:58.856Z,100335.44
2023-03-22T02:08:27.824Z,100333.34
2023-03-22T02:10:55.693Z,100332.50
2023-03-22T02:13:39.344Z,100329.59
2023-03-22T02:16:21.332Z,100325.22
2023-03-22T02:19:05.959Z,100321.28
2023-03-22T02:21:49.587Z,100318.78
2023-03-22T02:24:49.459Z,100320.66
2023-03-22T02:27:28.514Z,100320.63
2023-03-22T02:30:14.193Z,100318.53
2023-03-22T02:33:03.342Z,100318.97
2023-03-22T02:35:43.920Z,100316.25
2023-03-22T02:38:36.654Z,100319.16
2023-03-22T02:41:14.153Z,100322.06
2023-03-22T02:43:49.407Z,100316.66
2023-03-22T02:46:23.089Z,100316.66
2023-03-22T02:49:01.190Z,100313.97
2023-03-22T02:51:35.545Z,100317.94
2023-03-22T02:54:08.494Z,100313.38
2023-03-22T02:56:41.765Z,100306.91
2023-03-22T02:59:13.685Z,100310.22
2023-03-22T03:01:44.949Z,100312.94
2023-03-22T03:04:18.486Z,100311.25
2023-03-22T03:06:49.429Z,100311.50
2023-03-22T03:09:19.958Z,100303.19
2023-03-22T03:11:51.239Z,100309.63
2023-03-22T03:14:24.563Z,100309.84
2023-03-22T03:17:07.375Z,100306.28
2023-03-22T03:19:41.960Z,100305.03
2023-03-22T03:22:27.326Z,100296.75
2023-03-22T03:25:02.643Z,100302.59
2023-03-22T03:27:38.512Z,100305.94
2023-03-22T03:30:12.793Z,100309.69
2023-03-22T03:32:46.407Z,100301.94
2023-03-22T03:35:23.167Z,100301.94
2023-03-22T03:37:54.863Z,100302.16
2023-03-22T03:40:27.587Z,100292.59
2023-03-22T03:42:58.011Z,100286.16
2023-03-22T03:45:26.067Z,100285.09
2023-03-22T03:47:58.932Z,100282.19
2023-03-22T03:50:28.012Z,100279.28
2023-03-22T03:52:56.854Z,100279.91
2023-03-22T03:55:27.538Z,100274.72
2023-03-22T03:57:56.457Z,100265.13
2023-03-22T04:00:24.152Z,100270.34
2023-03-22T04:02:51.835Z,100271.78
2023-03-22T04:05:19.759Z,100274.72
2023-03-22T04:07:47.545Z,100266.59
2023-03-22T04:10:15.144Z,100269.09
2023-03-22T04:12:42.946Z,100260.53
2023-03-22T04:15:13.130Z,100260.97
2023-03-22T04:17:41.587Z,100264.28
2023-03-22T04:20:12.922Z,100257.63
2023-03-22T04:22:41.792Z,100258.25
2023-03-22T04:25:12.036Z,100254.53
2023-03-22T04:27:40.981Z,100262.84
2023-03-22T04:30:11.235Z,100259.50
2023-03-22T04:32:40.604Z,100256.38
2023-03-22T04:35:08.802Z,100254.09
2023-03-22T04:37:36.442Z,100254.91
2023-03-22T04:40:06.635Z,100248.91
2023-03-22T04:42:34.824Z,100253.28
2023-03-22T04:45:03.993Z,100261.41
2023-03-22T04:47:31.756Z,100249.50
2023-03-22T04:50:00.899Z,100250.16
2023-03-22T04:52:28.685Z,100251.81
2023-03-22T04:54:56.542Z,100244.72
2023-03-22T04:57:24.647Z,100250.78
2023-03-22T04:59:52.376Z,100245.16
2023-03-22T05:02:20.265Z,100247.44
2023-03-22T05:04:48.387Z,100245.16
2023-03-22T05:07:17.462Z,100247.22
2023-03-22T05:09:45.256Z,100248.47
2023-03-22T05:12:13.232Z,100236.81
2023-03-22T05:14:41.082Z,100240.13
2023-03-22T05:17:09.053Z,100240.13
2023-03-22T05:19:37.157Z,100245.56
2023-03-22T05:22:05.111Z,100242.66
2023-03-22T05:24:34.052Z,100247.44
2023-03-22T05:27:03.613Z,100239.31
2023-03-22T05:29:36.989Z,100249.13
2023-03-22T05:32:05.527Z,100237.44
2023-03-22T05:34:36.286Z,100233.91
2023-03-22T05:37:04.383Z,100236.63
2023-03-22T05:39:33.737Z,100239.75
2023-03-22T05:42:01.414Z,100235.78
2023-03-22T05:44:29.098Z,100230.56
2023-03-22T05:46:57.016Z,100230.16
2023-03-22T05:49:26.700Z,100228.06
2023-03-22T05:51:55.194Z,100215.38
2023-03-22T05:54:22.901Z,100214.75
2023-03-22T05:56:54.031Z,100224.91
2023-03-22T05:59:23.088Z,100220.56
2023-03-22T06:01:51.166Z,100222.22
2023-03-22T06:04:20.944Z,100215.16
2023-03-22T06:06:48.781Z,100208.28
2023-03-22T06:09:17.985Z,100217.22
2023-03-22T06:11:45.978Z,100221.59
2023-03-22T06:14:14.962Z,100218.47
2023-03-22T06:16:42.767Z,100210.16
2023-03-22T06:19:10.590Z,100212.06
2023-03-22T06:21:38.247Z,100216.81
2023-03-22T06:24:06.515Z,100217.25
2023-03-22T06:26:34.201Z,100216.22
2023-03-22T06:29:03.501Z,100199.78
2023-03-22T06:31:32.516Z,100213.50
2023-03-22T06:34:00.297Z,100208.31
2023-03-22T06:36:30.312Z,100205.38
2023-03-22T06:39:00.895Z,100209.56
2023-03-22T06:41:28.649Z,100214.31
2023-03-22T06:43:56.298Z,100215.97
2023-03-22T06:46:24.126Z,100212.66
2023-03-22T06:48:56.653Z,100208.69
2023-03-22T06:51:24.675Z,100205.16
2023-03-22T06:53:54.758Z,100190.56
2023-03-22T06:56:22.500Z,100201.63
2023-03-22T06:58:51.838Z,100206.00
2023-03-22T07:01:20.092Z,100196.63
2023-03-22T07:03:49.500Z,100197.44
2023-03-22T07:06:18.862Z,100201.41
2023-03-22T07:08:46.616Z,100206.00
2023-03-22T07:11:16.563Z,100194.75
2023-03-22T07:13:45.112Z,100200.38
2023-03-22T07:16:13.515Z,100203.31
2023-03-22T07:18:41.526Z,100206.00
2023-03-22T07:21:09.509Z,100201.41
2023-03-22T07:23:38.588Z,100208.28
2023-03-22T07:26:07.000Z,100212.63
2023-03-22T07:28:35.217Z,100210.53
2023-03-22T07:31:06.620Z,100205.28
2023-03-22T07:33:34.557Z,100200.50
2023-03-22T07:36:02.597Z,100195.50
2023-03-22T07:38:31.812Z,100188.97
2023-03-22T07:41:01.038Z,100191.88
2023-03-22T07:43:28.888Z,100192.47
2023-03-22T07:45:56.643Z,100180.38
2023-03-22T07:48:25.036Z,100184.28
2023-03-22T07:50:56.725Z,100190.94
2023-03-22T07:53:24.823Z,100186.16
2023-03-22T07:55:52.548Z,100180.88
2023-03-22T07:58:24.060Z,100179.69
2023-03-22T08:00:51.626Z,100179.59
2023-03-22T08:03:19.407Z,100170.06
2023-03-22T08:05:48.171Z,100175.44
2023-03-22T08:08:16.059Z,100174.78
2023-03-22T08:10:44.143Z,100169.66
2023-03-22T08:13:12.804Z,100181.56
2023-03-22T08:15:43.297Z,100181.47
2023-03-22T08:18:13.361Z,100179.13
2023-03-22T08:20:42.095Z,100172.50
2023-03-22T08:23:14.429Z,100167.03
2023-03-22T08:25:42.342Z,100167.63
2023-03-22T08:28:10.513Z,100165.81
2023-03-22T08:30:38.626Z,100158.06
2023-03-22T08:33:07.753Z,100148.31
2023-03-22T08:35:35.700Z,100154.59
2023-03-22T08:38:03.464Z,100147.44
2023-03-22T08:40:31.130Z,100147.72
2023-03-22T08:42:59.116Z,100149.91
2023-03-22T08:45:26.982Z,100144.16
2023-03-22T08:47:54.599Z,100136.69
2023-03-22T08:50:24.277Z,100138.66
2023-03-22T08:52:53.588Z,100129.03
2023-03-22T08:55:21.252Z,100131.56
2023-03-22T08:57:50.438Z,100135.09
2023-03-22T09:00:19.528Z,100126.94
2023-03-22T09:02:47.873Z,100136.69
2023-03-22T09:05:15.677Z,100135.19
2023-03-22T09:07:44.837Z,100129.25
2023-03-22T09:10:13.079Z,100125.59
2023-03-22T09:12:40.871Z,100125.75
2023-03-22T09:15:09.436Z,100129.38
2023-03-22T09:17:37.090Z,100119.84
2023-03-22T09:20:12.730Z,100115.94
2023-03-22T09:22:41.151Z,100105.91
2023-03-22T09:25:12.811Z,100100.63
2023-03-22T09:27:42.392Z,100091.50
2023-03-22T09:30:11.846Z,100086.44
2023-03-22T09:32:42.225Z,100092.28
2023-03-22T09:35:10.587Z,100089.41
2023-03-22T09:37:38.524Z,100088.28
2023-03-22T09:40:07.765Z,100089.47
2023-03-22T09:42:40.782Z,100091.19
2023-03-22T09:45:14.727Z,100092.84
2023-03-22T09:47:46.762Z,100074.38
2023-03-22T09:50:19.601Z,100078.59
2023-03-22T09:52:49.977Z,100074.84
2023-03-22T09:55:23.081Z,100072.97
2023-03-22T09:58:02.144Z,100073.13
2023-03-22T10:00:38.937Z,100062.91
2023-03-22T10:03:18.078Z,100063.75
2023-03-22T10:05:50.919Z,100068.88
2023-03-22T10:08:28.877Z,100054.22
2023-03-22T10:10:58.541Z,100054.31
2023-03-22T10:13:36.926Z,100064.53
2023-03-22T10:16:08.992Z,100055.28
2023-03-22T10:18:39.647Z,100050.41
2023-03-22T10:21:09.641Z,100049.13
2023-03-22T10:23:44.994Z,100046.44
2023-03-22T10:26:21.104Z,100043.03
2023-03-22T10:28:59.350Z,100049.78
2023-03-22T10:31:28.133Z,100046.13
2023-03-22T10:33:59.943Z,100045.50
2023-03-22T10:36:33.246Z,100047.41
2023-03-22T10:39:05.692Z,100048.94
2023-03-22T10:41:34.985Z,100035.91
2023-03-22T10:44:06.458Z,100038.53
2023-03-22T10:46:39.175Z,100043.72
2023-03-22T10:49:08.641Z,100037.72
2023-03-22T10:51:41.603Z,100056.88
2023-03-22T10:54:14.293Z,100053.09
2023-03-22T10:56:42.358Z,100050.03
2023-03-22T10:59:48.378Z,100046.94
2023-03-22T11:02:21.139Z,100042.31
2023-03-22T11:04:50.722Z,100034.50
2023-03-22T11:07:31.240Z,100029.81
2023-03-22T11:10:12.209Z,100023.75
2023-03-22T11:12:43.144Z,100030.00
2023-03-22T11:15:23.931Z,100030.00
2023-03-22T11:17:51.992Z,100025.84
2023-03-22T11:20:20.854Z,100020.28
2023-03-22T11:22:49.759Z,100026.34
2023-03-22T11:25:21.619Z,100016.38
2023-03-22T11:27:54.391Z,100029.53
2023-03-22T11:30:26.379Z,100031.66
2023-03-22T11:33:17.821Z,100027.41
2023-03-22T11:35:48.094Z,100035.19
2023-03-22T11:38:31.543Z,100027.16
2023-03-22T11:41:05.536Z,100022.91
2023-03-22T11:43:37.398Z,100025.38
2023-03-22T11:46:09.465Z,100033.31
2023-03-22T11:48:38.189Z,100030.09
2023-03-22T11:51:10.087Z,100046.78
2023-03-22T11:53:40.418Z,100033.75
2023-03-22T11:56:11.870Z,100034.34
2023-03-22T11:58:59.880Z,100028.41
2023-03-22T12:01:43.785Z,100025.34
2023-03-22T12:04:17.369Z,100031.47
2023-03-22T12:06:45.316Z,100021.34
2023-03-22T12:09:23.422Z,100024.13
2023-03-22T12:11:54.241Z,100022.97
2023-03-22T12:14:24.406Z,100027.91
2023-03-22T12:16:59.175Z,100021.38
2023-03-22T12:19:42.683Z,100028.75
2023-03-22T12:22:13.922Z,100036.09
2023-03-22T12:24:43.033Z,100030.22
2023-03-22T12:27:18.524Z,100029.38
2023-03-22T12:29:50.832Z,100027.63
2023-03-22T12:32:25.255Z,100029.38
2023-03-22T12:35:05.403Z,100028.41
2023-03-22T12:37:44.294Z,100026.44
2023-03-22T12:40:24.279Z,100023.91
2023-03-22T12:43:01.755Z,100023.81
2023-03-22T12:45:33.087Z,100017.94
2023-03-22T12:48:07.368Z,100025.78
2023-03-22T12:50:38.723Z,100019.50
2023-03-22T12:53:08.606Z,100021.88
2023-03-22T12:55:40.978Z,100004.56
2023-03-22T12:58:10.882Z,100009.66
2023-03-22T13:00:45.818Z,100017.97
2023-03-22T13:03:26.862Z,100000.91
2023-03-22T13:06:07.671Z,99984.34
2023-03-22T13:09:17.027Z,99989.44
2023-03-22T13:11:46.560Z,99991.41
2023-03-22T13:14:47.012Z,99981.94
2023-03-22T13:17:16.918Z,99987.47
2023-03-22T13:19:54.746Z,99987.72
2023-03-22T13:22:28.223Z,99982.88
2023-03-22T13:25:10.910Z,99987.28
2023-03-22T13:27:41.754Z,99982.56
2023-03-22T13:30:17.779Z,99976.88
2023-03-22T13:32:54.604Z,99973.91
2023-03-22T13:35:28.288Z,99974.63
2023-03-22T13:38:03.064Z,99979.50
2023-03-22T13:40:37.548Z,99978.56
2023-03-22T13:43:25.298Z,99977.13
2023-03-22T13:46:14.916Z,99988.97
2023-03-22T13:48:52.263Z,99978.56
2023-03-22T13:51:30.097Z,99984.84
2023-03-22T13:54:03.457Z,99983.88
2023-03-22T13:56:52.212Z,99983.53
2023-03-22T13:59:25.265Z,99985.53
2023-03-22T14:01:55.693Z,99998.00
2023-03-22T14:04:29.920Z,99993.84
2023-03-22T14:07:01.614Z,100003.66
2023-03-22T14:09:36.652Z,99997.63
2023-03-22T14:12:10.771Z,99998.22
2023-03-22T14:14:43.873Z,100004.88
2023-03-22T14:17:22.800Z,100000.94
2023-03-22T14:19:52.628Z,100000.13
